sensor_id;sensor_type;location;lat;lon;timestamp;P1;durP1;ratioP1;P2;durP2;ratioP2
23360;SDS011;11852;50.082;18.554;2023-07-16T00:00:46;7.2;;;4.0;;
23360;SDS011;11852;50.082;18.554;2023-07-16T00:01:51;6.0;;;3.9;;
23360;SDS011;11852;50.082;18.554;2023-07-16T00:02:56;6.8;;;3.8;;
23360;SDS011;11852;50.082;18.554;2023-07-16T00:04:03;7.4;;;3.8;;
23360;SDS011;11852;50.082;18.554;2023-07-16T00:05:10;7.0;;;4.0;;
23360;SDS011;11852;50.082;18.554;2023-07-16T00:06:15;6.0;;;3.8;;
23360;SDS011;11852;50.082;18.554;2023-07-16T00:07:20;8.7;;;4.4;;
23360;SDS011;11852;50.082;18.554;2023-07-16T00:08:25;6.7;;;4.0;;
23360;SDS011;11852;50.082;18.554;2023-07-16T00:09:30;6.3;;;4.1;;
23360;SDS011;11852;50.082;18.554;2023-07-16T00:10:36;7.4;;;4.3;;
23360;SDS011;11852;50.082;18.554;2023-07-16T00:11:40;6.1;;;4.0;;
23360;SDS011;11852;50.082;18.554;2023-07-16T00:12:45;7.1;;;4.5;;
23360;SDS011;11852;50.082;18.554;2023-07-16T00:13:51;6.6;;;4.3;;
23360;SDS011;11852;50.082;18.554;2023-07-16T00:14:56;8.3;;;4.2;;
23360;SDS011;11852;50.082;18.554;2023-07-16T00:16:01;6.5;;;4.1;;
23360;SDS011;11852;50.082;18.554;2023-07-16T00:17:07;8.2;;;4.2;;
23360;SDS011;11852;50.082;18.554;2023-07-16T00:18:12;7.3;;;3.9;;
23360;SDS011;11852;50.082;18.554;2023-07-16T00:19:17;6.6;;;4.3;;
23360;SDS011;11852;50.082;18.554;2023-07-16T00:20:23;5.7;;;4.1;;
23360;SDS011;11852;50.082;18.554;2023-07-16T00:21:29;6.3;;;3.7;;
23360;SDS011;11852;50.082;18.554;2023-07-16T00:22:34;7.2;;;4.1;;
23360;SDS011;11852;50.082;18.554;2023-07-16T00:23:40;6.1;;;3.8;;
23360;SDS011;11852;50.082;18.554;2023-07-16T00:24:45;6.6;;;4.1;;
23360;SDS011;11852;50.082;18.554;2023-07-16T00:25:49;6.6;;;4.2;;
23360;SDS011;11852;50.082;18.554;2023-07-16T00:26:54;5.9;;;3.9;;
23360;SDS011;11852;50.082;18.554;2023-07-16T00:27:59;6.4;;;3.9;;
23360;SDS011;11852;50.082;18.554;2023-07-16T00:29:04;7.5;;;4.0;;
23360;SDS011;11852;50.082;18.554;2023-07-16T00:30:09;6.8;;;3.8;;
23360;SDS011;11852;50.082;18.554;2023-07-16T00:31:14;6.5;;;4.0;;
23360;SDS011;11852;50.082;18.554;2023-07-16T00:32:20;8.1;;;4.1;;
23360;SDS011;11852;50.082;18.554;2023-07-16T00:33:25;6.3;;;4.1;;
23360;SDS011;11852;50.082;18.554;2023-07-16T00:34:30;6.6;;;3.9;;
23360;SDS011;11852;50.082;18.554;2023-07-16T00:35:37;6.6;;;4.1;;
23360;SDS011;11852;50.082;18.554;2023-07-16T00:36:42;6.4;;;4.1;;
23360;SDS011;11852;50.082;18.554;2023-07-16T00:37:47;5.8;;;3.9;;
23360;SDS011;11852;50.082;18.554;2023-07-16T00:38:52;5.5;;;3.5;;
23360;SDS011;11852;50.082;18.554;2023-07-16T00:39:57;8.0;;;3.8;;
23360;SDS011;11852;50.082;18.554;2023-07-16T00:41:02;6.4;;;3.9;;
23360;SDS011;11852;50.082;18.554;2023-07-16T00:42:07;7.1;;;3.8;;
23360;SDS011;11852;50.082;18.554;2023-07-16T00:43:12;9.3;;;3.8;;
23360;SDS011;11852;50.082;18.554;2023-07-16T00:44:18;6.4;;;4.2;;
23360;SDS011;11852;50.082;18.554;2023-07-16T00:45:22;6.5;;;4.0;;
23360;SDS011;11852;50.082;18.554;2023-07-16T00:46:27;6.9;;;3.8;;
23360;SDS011;11852;50.082;18.554;2023-07-16T00:47:33;6.6;;;3.7;;
23360;SDS011;11852;50.082;18.554;2023-07-16T00:48:38;5.8;;;3.7;;
23360;SDS011;11852;50.082;18.554;2023-07-16T00:49:42;6.7;;;3.9;;
23360;SDS011;11852;50.082;18.554;2023-07-16T00:50:47;6.3;;;3.8;;
23360;SDS011;11852;50.082;18.554;2023-07-16T00:51:52;5.7;;;3.7;;
23360;SDS011;11852;50.082;18.554;2023-07-16T00:52:58;7.7;;;4.0;;
23360;SDS011;11852;50.082;18.554;2023-07-16T00:54:03;7.1;;;3.8;;
23360;SDS011;11852;50.082;18.554;2023-07-16T00:55:07;7.4;;;3.8;;
23360;SDS011;11852;50.082;18.554;2023-07-16T00:56:15;6.8;;;4.0;;
23360;SDS011;11852;50.082;18.554;2023-07-16T00:57:18;6.4;;;3.8;;
23360;SDS011;11852;50.082;18.554;2023-07-16T00:58:23;7.1;;;3.8;;
23360;SDS011;11852;50.082;18.554;2023-07-16T00:59:27;6.1;;;4.0;;
23360;SDS011;11852;50.082;18.554;2023-07-16T01:00:33;6.7;;;3.7;;
23360;SDS011;11852;50.082;18.554;2023-07-16T01:01:38;5.8;;;4.0;;
23360;SDS011;11852;50.082;18.554;2023-07-16T01:02:42;6.7;;;4.0;;
23360;SDS011;11852;50.082;18.554;2023-07-16T01:03:46;6.4;;;4.3;;
23360;SDS011;11852;50.082;18.554;2023-07-16T01:04:51;5.8;;;3.8;;
23360;SDS011;11852;50.082;18.554;2023-07-16T01:07:09;6.2;;;3.7;;
23360;SDS011;11852;50.082;18.554;2023-07-16T01:08:12;6.6;;;3.6;;
23360;SDS011;11852;50.082;18.554;2023-07-16T01:09:17;6.2;;;4.1;;
23360;SDS011;11852;50.082;18.554;2023-07-16T01:10:22;5.3;;;3.9;;
23360;SDS011;11852;50.082;18.554;2023-07-16T01:11:26;6.3;;;4.1;;
23360;SDS011;11852;50.082;18.554;2023-07-16T01:12:31;6.2;;;3.9;;
23360;SDS011;11852;50.082;18.554;2023-07-16T01:13:36;7.3;;;3.8;;
23360;SDS011;11852;50.082;18.554;2023-07-16T01:14:42;6.3;;;3.6;;
23360;SDS011;11852;50.082;18.554;2023-07-16T01:15:47;5.7;;;3.9;;
23360;SDS011;11852;50.082;18.554;2023-07-16T01:16:52;7.2;;;3.8;;
23360;SDS011;11852;50.082;18.554;2023-07-16T01:17:57;6.3;;;3.9;;
23360;SDS011;11852;50.082;18.554;2023-07-16T01:19:02;7.1;;;3.8;;
23360;SDS011;11852;50.082;18.554;2023-07-16T01:20:06;7.9;;;3.9;;
23360;SDS011;11852;50.082;18.554;2023-07-16T01:21:11;5.8;;;3.9;;
23360;SDS011;11852;50.082;18.554;2023-07-16T01:22:22;6.4;;;4.0;;
23360;SDS011;11852;50.082;18.554;2023-07-16T01:28:24;6.0;;;4.0;;
23360;SDS011;11852;50.082;18.554;2023-07-16T01:30:37;5.9;;;3.5;;
23360;SDS011;11852;50.082;18.554;2023-07-16T01:31:42;6.7;;;3.5;;
23360;SDS011;11852;50.082;18.554;2023-07-16T01:32:46;5.9;;;3.1;;
23360;SDS011;11852;50.082;18.554;2023-07-16T01:33:52;5.2;;;3.2;;
23360;SDS011;11852;50.082;18.554;2023-07-16T01:34:57;6.1;;;3.6;;
23360;SDS011;11852;50.082;18.554;2023-07-16T01:36:02;6.9;;;3.2;;
23360;SDS011;11852;50.082;18.554;2023-07-16T01:37:07;6.2;;;2.9;;
23360;SDS011;11852;50.082;18.554;2023-07-16T01:38:11;6.9;;;2.9;;
23360;SDS011;11852;50.082;18.554;2023-07-16T01:39:16;5.9;;;2.8;;
23360;SDS011;11852;50.082;18.554;2023-07-16T01:40:21;5.5;;;3.1;;
23360;SDS011;11852;50.082;18.554;2023-07-16T01:41:26;7.4;;;3.2;;
23360;SDS011;11852;50.082;18.554;2023-07-16T01:42:31;6.5;;;3.6;;
23360;SDS011;11852;50.082;18.554;2023-07-16T01:43:35;6.6;;;3.4;;
23360;SDS011;11852;50.082;18.554;2023-07-16T01:44:40;6.4;;;3.4;;
23360;SDS011;11852;50.082;18.554;2023-07-16T01:45:45;6.9;;;3.7;;
23360;SDS011;11852;50.082;18.554;2023-07-16T01:47:35;6.2;;;3.7;;
23360;SDS011;11852;50.082;18.554;2023-07-16T01:49:10;7.9;;;3.9;;
23360;SDS011;11852;50.082;18.554;2023-07-16T01:50:15;6.9;;;3.5;;
23360;SDS011;11852;50.082;18.554;2023-07-16T01:51:20;6.1;;;3.9;;
23360;SDS011;11852;50.082;18.554;2023-07-16T01:52:25;9.7;;;4.1;;
23360;SDS011;11852;50.082;18.554;2023-07-16T01:53:29;6.2;;;3.8;;
23360;SDS011;11852;50.082;18.554;2023-07-16T01:54:36;6.3;;;4.0;;
23360;SDS011;11852;50.082;18.554;2023-07-16T01:55:40;5.5;;;3.9;;
23360;SDS011;11852;50.082;18.554;2023-07-16T01:56:45;7.1;;;3.9;;
23360;SDS011;11852;50.082;18.554;2023-07-16T01:57:50;7.3;;;3.6;;
23360;SDS011;11852;50.082;18.554;2023-07-16T01:58:55;6.8;;;4.2;;
23360;SDS011;11852;50.082;18.554;2023-07-16T02:00:00;6.3;;;4.0;;
23360;SDS011;11852;50.082;18.554;2023-07-16T02:01:04;6.8;;;3.8;;
23360;SDS011;11852;50.082;18.554;2023-07-16T02:02:09;6.2;;;3.6;;
23360;SDS011;11852;50.082;18.554;2023-07-16T02:03:14;6.8;;;3.8;;
23360;SDS011;11852;50.082;18.554;2023-07-16T02:04:19;6.7;;;3.9;;
23360;SDS011;11852;50.082;18.554;2023-07-16T02:05:23;8.0;;;4.0;;
23360;SDS011;11852;50.082;18.554;2023-07-16T02:06:29;8.5;;;3.9;;
23360;SDS011;11852;50.082;18.554;2023-07-16T02:07:34;7.6;;;4.3;;
23360;SDS011;11852;50.082;18.554;2023-07-16T02:08:39;7.6;;;4.2;;
23360;SDS011;11852;50.082;18.554;2023-07-16T02:09:44;6.9;;;3.7;;
23360;SDS011;11852;50.082;18.554;2023-07-16T02:10:50;6.8;;;4.0;;
23360;SDS011;11852;50.082;18.554;2023-07-16T02:11:56;6.6;;;4.0;;
23360;SDS011;11852;50.082;18.554;2023-07-16T02:13:01;7.1;;;4.4;;
23360;SDS011;11852;50.082;18.554;2023-07-16T02:14:06;6.2;;;3.8;;
23360;SDS011;11852;50.082;18.554;2023-07-16T02:15:11;6.6;;;3.5;;
23360;SDS011;11852;50.082;18.554;2023-07-16T02:16:16;7.9;;;3.8;;
23360;SDS011;11852;50.082;18.554;2023-07-16T02:17:20;6.8;;;3.6;;
23360;SDS011;11852;50.082;18.554;2023-07-16T02:18:25;5.8;;;3.5;;
23360;SDS011;11852;50.082;18.554;2023-07-16T02:19:30;6.0;;;3.2;;
23360;SDS011;11852;50.082;18.554;2023-07-16T02:20:35;7.0;;;3.3;;
23360;SDS011;11852;50.082;18.554;2023-07-16T02:21:40;5.7;;;3.0;;
23360;SDS011;11852;50.082;18.554;2023-07-16T02:22:45;7.0;;;3.1;;
23360;SDS011;11852;50.082;18.554;2023-07-16T02:23:49;5.9;;;3.0;;
23360;SDS011;11852;50.082;18.554;2023-07-16T02:24:54;6.6;;;3.5;;
23360;SDS011;11852;50.082;18.554;2023-07-16T02:25:59;7.3;;;3.2;;
23360;SDS011;11852;50.082;18.554;2023-07-16T02:27:04;7.9;;;3.1;;
23360;SDS011;11852;50.082;18.554;2023-07-16T02:28:10;6.6;;;3.4;;
23360;SDS011;11852;50.082;18.554;2023-07-16T02:29:16;6.2;;;3.0;;
23360;SDS011;11852;50.082;18.554;2023-07-16T02:30:20;7.0;;;3.4;;
23360;SDS011;11852;50.082;18.554;2023-07-16T02:31:25;7.8;;;3.4;;
23360;SDS011;11852;50.082;18.554;2023-07-16T02:32:30;7.0;;;3.9;;
23360;SDS011;11852;50.082;18.554;2023-07-16T02:33:35;6.9;;;3.5;;
23360;SDS011;11852;50.082;18.554;2023-07-16T02:34:40;6.5;;;3.3;;
23360;SDS011;11852;50.082;18.554;2023-07-16T02:35:48;6.2;;;3.1;;
23360;SDS011;11852;50.082;18.554;2023-07-16T02:36:52;7.7;;;3.5;;
23360;SDS011;11852;50.082;18.554;2023-07-16T02:37:57;7.4;;;3.5;;
23360;SDS011;11852;50.082;18.554;2023-07-16T02:39:02;5.7;;;3.3;;
23360;SDS011;11852;50.082;18.554;2023-07-16T02:40:07;6.3;;;3.4;;
23360;SDS011;11852;50.082;18.554;2023-07-16T02:41:12;6.1;;;3.4;;
23360;SDS011;11852;50.082;18.554;2023-07-16T02:42:16;5.7;;;3.5;;
23360;SDS011;11852;50.082;18.554;2023-07-16T02:43:21;6.5;;;3.6;;
23360;SDS011;11852;50.082;18.554;2023-07-16T02:44:26;8.3;;;3.9;;
23360;SDS011;11852;50.082;18.554;2023-07-16T02:45:31;6.6;;;3.5;;
23360;SDS011;11852;50.082;18.554;2023-07-16T02:46:36;6.4;;;3.5;;
23360;SDS011;11852;50.082;18.554;2023-07-16T02:47:41;5.9;;;3.7;;
23360;SDS011;11852;50.082;18.554;2023-07-16T02:48:45;5.8;;;3.1;;
23360;SDS011;11852;50.082;18.554;2023-07-16T02:49:51;5.8;;;3.4;;
23360;SDS011;11852;50.082;18.554;2023-07-16T02:50:55;7.0;;;3.5;;
23360;SDS011;11852;50.082;18.554;2023-07-16T02:52:00;6.9;;;3.3;;
23360;SDS011;11852;50.082;18.554;2023-07-16T02:53:05;7.1;;;3.7;;
23360;SDS011;11852;50.082;18.554;2023-07-16T02:54:10;8.0;;;3.4;;
23360;SDS011;11852;50.082;18.554;2023-07-16T02:55:15;6.2;;;4.1;;
23360;SDS011;11852;50.082;18.554;2023-07-16T02:56:20;7.1;;;3.6;;
23360;SDS011;11852;50.082;18.554;2023-07-16T02:57:25;5.9;;;3.7;;
23360;SDS011;11852;50.082;18.554;2023-07-16T02:58:30;6.5;;;3.8;;
23360;SDS011;11852;50.082;18.554;2023-07-16T02:59:34;8.3;;;3.8;;
23360;SDS011;11852;50.082;18.554;2023-07-16T03:00:39;6.1;;;3.7;;
23360;SDS011;11852;50.082;18.554;2023-07-16T03:01:44;6.4;;;3.7;;
23360;SDS011;11852;50.082;18.554;2023-07-16T03:02:49;6.9;;;3.7;;
23360;SDS011;11852;50.082;18.554;2023-07-16T03:03:54;6.4;;;3.7;;
23360;SDS011;11852;50.082;18.554;2023-07-16T03:04:59;6.7;;;3.8;;
23360;SDS011;11852;50.082;18.554;2023-07-16T03:06:03;5.5;;;3.4;;
23360;SDS011;11852;50.082;18.554;2023-07-16T03:07:08;7.2;;;3.9;;
23360;SDS011;11852;50.082;18.554;2023-07-16T03:08:13;6.9;;;4.0;;
23360;SDS011;11852;50.082;18.554;2023-07-16T03:09:19;5.7;;;3.6;;
23360;SDS011;11852;50.082;18.554;2023-07-16T03:10:24;5.8;;;3.9;;
23360;SDS011;11852;50.082;18.554;2023-07-16T03:11:28;7.8;;;3.9;;
23360;SDS011;11852;50.082;18.554;2023-07-16T03:12:33;8.1;;;3.7;;
23360;SDS011;11852;50.082;18.554;2023-07-16T03:13:38;6.1;;;3.4;;
23360;SDS011;11852;50.082;18.554;2023-07-16T03:14:43;6.1;;;3.8;;
23360;SDS011;11852;50.082;18.554;2023-07-16T03:15:49;7.0;;;3.6;;
23360;SDS011;11852;50.082;18.554;2023-07-16T03:16:53;5.9;;;3.5;;
23360;SDS011;11852;50.082;18.554;2023-07-16T03:17:58;6.2;;;3.6;;
23360;SDS011;11852;50.082;18.554;2023-07-16T03:19:03;7.2;;;3.9;;
23360;SDS011;11852;50.082;18.554;2023-07-16T03:20:08;7.4;;;3.6;;
23360;SDS011;11852;50.082;18.554;2023-07-16T03:21:13;5.8;;;3.8;;
23360;SDS011;11852;50.082;18.554;2023-07-16T03:22:18;6.7;;;3.8;;
23360;SDS011;11852;50.082;18.554;2023-07-16T03:23:24;7.1;;;4.0;;
23360;SDS011;11852;50.082;18.554;2023-07-16T03:24:29;7.4;;;3.6;;
23360;SDS011;11852;50.082;18.554;2023-07-16T03:25:33;6.2;;;3.5;;
23360;SDS011;11852;50.082;18.554;2023-07-16T03:26:39;11.0;;;3.7;;
23360;SDS011;11852;50.082;18.554;2023-07-16T03:27:43;9.9;;;4.0;;
23360;SDS011;11852;50.082;18.554;2023-07-16T03:28:48;11.4;;;3.8;;
23360;SDS011;11852;50.082;18.554;2023-07-16T03:29:54;9.4;;;4.0;;
23360;SDS011;11852;50.082;18.554;2023-07-16T03:31:00;8.0;;;4.0;;
23360;SDS011;11852;50.082;18.554;2023-07-16T03:32:05;12.4;;;4.4;;
23360;SDS011;11852;50.082;18.554;2023-07-16T03:33:09;9.9;;;3.6;;
23360;SDS011;11852;50.082;18.554;2023-07-16T03:34:14;11.2;;;4.0;;
23360;SDS011;11852;50.082;18.554;2023-07-16T03:35:19;10.5;;;3.7;;
23360;SDS011;11852;50.082;18.554;2023-07-16T03:36:24;8.4;;;3.9;;
23360;SDS011;11852;50.082;18.554;2023-07-16T03:37:29;8.3;;;3.9;;
23360;SDS011;11852;50.082;18.554;2023-07-16T03:38:34;6.6;;;3.8;;
23360;SDS011;11852;50.082;18.554;2023-07-16T03:39:40;7.5;;;3.8;;
23360;SDS011;11852;50.082;18.554;2023-07-16T03:40:48;6.6;;;3.5;;
23360;SDS011;11852;50.082;18.554;2023-07-16T03:41:52;6.0;;;3.6;;
23360;SDS011;11852;50.082;18.554;2023-07-16T03:42:57;9.2;;;3.2;;
23360;SDS011;11852;50.082;18.554;2023-07-16T03:44:04;6.5;;;3.2;;
23360;SDS011;11852;50.082;18.554;2023-07-16T03:45:10;7.0;;;3.5;;
23360;SDS011;11852;50.082;18.554;2023-07-16T03:46:14;6.4;;;3.7;;
23360;SDS011;11852;50.082;18.554;2023-07-16T03:47:19;6.3;;;3.6;;
23360;SDS011;11852;50.082;18.554;2023-07-16T03:48:24;5.8;;;3.7;;
23360;SDS011;11852;50.082;18.554;2023-07-16T03:49:29;5.6;;;3.6;;
23360;SDS011;11852;50.082;18.554;2023-07-16T03:50:34;5.8;;;3.7;;
23360;SDS011;11852;50.082;18.554;2023-07-16T03:51:40;6.9;;;4.0;;
23360;SDS011;11852;50.082;18.554;2023-07-16T03:52:45;6.5;;;4.1;;
23360;SDS011;11852;50.082;18.554;2023-07-16T03:53:49;7.9;;;4.1;;
23360;SDS011;11852;50.082;18.554;2023-07-16T03:54:55;7.2;;;3.8;;
23360;SDS011;11852;50.082;18.554;2023-07-16T03:56:00;7.1;;;4.7;;
23360;SDS011;11852;50.082;18.554;2023-07-16T03:57:05;8.1;;;4.1;;
23360;SDS011;11852;50.082;18.554;2023-07-16T03:58:10;7.9;;;4.6;;
23360;SDS011;11852;50.082;18.554;2023-07-16T03:59:16;7.2;;;4.2;;
23360;SDS011;11852;50.082;18.554;2023-07-16T04:00:21;8.4;;;4.5;;
23360;SDS011;11852;50.082;18.554;2023-07-16T04:01:26;8.2;;;4.4;;
23360;SDS011;11852;50.082;18.554;2023-07-16T04:02:31;7.2;;;4.0;;
23360;SDS011;11852;50.082;18.554;2023-07-16T04:03:36;8.4;;;4.3;;
23360;SDS011;11852;50.082;18.554;2023-07-16T04:04:40;8.2;;;4.5;;
23360;SDS011;11852;50.082;18.554;2023-07-16T04:05:48;6.7;;;4.3;;
23360;SDS011;11852;50.082;18.554;2023-07-16T04:06:53;6.3;;;4.0;;
23360;SDS011;11852;50.082;18.554;2023-07-16T04:07:58;8.6;;;4.4;;
23360;SDS011;11852;50.082;18.554;2023-07-16T04:09:03;10.2;;;4.0;;
23360;SDS011;11852;50.082;18.554;2023-07-16T04:10:08;8.0;;;4.4;;
23360;SDS011;11852;50.082;18.554;2023-07-16T04:11:13;6.6;;;4.2;;
23360;SDS011;11852;50.082;18.554;2023-07-16T04:12:18;9.6;;;4.6;;
23360;SDS011;11852;50.082;18.554;2023-07-16T04:13:23;6.3;;;4.4;;
23360;SDS011;11852;50.082;18.554;2023-07-16T04:14:28;8.0;;;4.8;;
23360;SDS011;11852;50.082;18.554;2023-07-16T04:15:33;7.9;;;4.6;;
23360;SDS011;11852;50.082;18.554;2023-07-16T04:16:37;8.1;;;4.9;;
23360;SDS011;11852;50.082;18.554;2023-07-16T04:17:42;8.9;;;4.3;;
23360;SDS011;11852;50.082;18.554;2023-07-16T04:18:48;7.5;;;4.3;;
23360;SDS011;11852;50.082;18.554;2023-07-16T04:19:53;7.5;;;4.3;;
23360;SDS011;11852;50.082;18.554;2023-07-16T04:20:58;7.7;;;4.2;;
23360;SDS011;11852;50.082;18.554;2023-07-16T04:22:03;7.6;;;4.3;;
23360;SDS011;11852;50.082;18.554;2023-07-16T04:23:08;9.6;;;4.4;;
23360;SDS011;11852;50.082;18.554;2023-07-16T04:24:13;7.9;;;4.0;;
23360;SDS011;11852;50.082;18.554;2023-07-16T04:25:18;6.7;;;4.4;;
23360;SDS011;11852;50.082;18.554;2023-07-16T04:26:24;8.4;;;4.3;;
23360;SDS011;11852;50.082;18.554;2023-07-16T04:27:29;8.4;;;4.2;;
23360;SDS011;11852;50.082;18.554;2023-07-16T04:28:34;7.0;;;3.9;;
23360;SDS011;11852;50.082;18.554;2023-07-16T04:29:39;9.1;;;4.4;;
23360;SDS011;11852;50.082;18.554;2023-07-16T04:30:44;9.1;;;4.2;;
23360;SDS011;11852;50.082;18.554;2023-07-16T04:31:49;8.3;;;4.4;;
23360;SDS011;11852;50.082;18.554;2023-07-16T04:32:55;6.8;;;4.3;;
23360;SDS011;11852;50.082;18.554;2023-07-16T04:34:00;9.4;;;4.2;;
23360;SDS011;11852;50.082;18.554;2023-07-16T04:35:05;8.3;;;4.3;;
23360;SDS011;11852;50.082;18.554;2023-07-16T04:36:10;7.8;;;4.7;;
23360;SDS011;11852;50.082;18.554;2023-07-16T04:37:15;9.3;;;4.3;;
23360;SDS011;11852;50.082;18.554;2023-07-16T04:38:20;7.7;;;4.2;;
23360;SDS011;11852;50.082;18.554;2023-07-16T04:39:25;8.8;;;4.7;;
23360;SDS011;11852;50.082;18.554;2023-07-16T04:40:30;8.2;;;4.3;;
23360;SDS011;11852;50.082;18.554;2023-07-16T04:41:35;8.5;;;4.3;;
23360;SDS011;11852;50.082;18.554;2023-07-16T04:42:40;8.2;;;4.2;;
23360;SDS011;11852;50.082;18.554;2023-07-16T04:43:44;7.4;;;4.3;;
23360;SDS011;11852;50.082;18.554;2023-07-16T04:44:49;7.2;;;4.7;;
23360;SDS011;11852;50.082;18.554;2023-07-16T04:45:54;8.4;;;4.3;;
23360;SDS011;11852;50.082;18.554;2023-07-16T04:47:00;8.7;;;4.8;;
23360;SDS011;11852;50.082;18.554;2023-07-16T04:48:05;9.2;;;4.5;;
23360;SDS011;11852;50.082;18.554;2023-07-16T04:49:10;6.8;;;4.5;;
23360;SDS011;11852;50.082;18.554;2023-07-16T04:50:15;8.6;;;4.2;;
23360;SDS011;11852;50.082;18.554;2023-07-16T04:51:21;9.5;;;4.5;;
23360;SDS011;11852;50.082;18.554;2023-07-16T04:52:26;8.8;;;4.0;;
23360;SDS011;11852;50.082;18.554;2023-07-16T04:53:31;6.9;;;3.9;;
23360;SDS011;11852;50.082;18.554;2023-07-16T04:54:36;7.8;;;4.2;;
23360;SDS011;11852;50.082;18.554;2023-07-16T04:55:41;7.1;;;4.3;;
23360;SDS011;11852;50.082;18.554;2023-07-16T04:56:46;7.8;;;4.0;;
23360;SDS011;11852;50.082;18.554;2023-07-16T04:57:51;8.1;;;3.7;;
23360;SDS011;11852;50.082;18.554;2023-07-16T04:58:56;7.3;;;4.1;;
23360;SDS011;11852;50.082;18.554;2023-07-16T05:00:01;6.7;;;3.9;;
23360;SDS011;11852;50.082;18.554;2023-07-16T05:01:07;6.8;;;4.1;;
23360;SDS011;11852;50.082;18.554;2023-07-16T05:02:12;7.8;;;4.1;;
23360;SDS011;11852;50.082;18.554;2023-07-16T05:03:17;7.7;;;4.3;;
23360;SDS011;11852;50.082;18.554;2023-07-16T05:04:22;9.2;;;4.7;;
23360;SDS011;11852;50.082;18.554;2023-07-16T05:05:27;7.8;;;4.5;;
23360;SDS011;11852;50.082;18.554;2023-07-16T05:06:32;6.2;;;4.7;;
23360;SDS011;11852;50.082;18.554;2023-07-16T05:07:37;8.1;;;4.4;;
23360;SDS011;11852;50.082;18.554;2023-07-16T05:08:41;8.0;;;4.9;;
23360;SDS011;11852;50.082;18.554;2023-07-16T05:09:47;8.0;;;4.7;;
23360;SDS011;11852;50.082;18.554;2023-07-16T05:10:51;9.1;;;4.3;;
23360;SDS011;11852;50.082;18.554;2023-07-16T05:11:56;8.7;;;4.8;;
23360;SDS011;11852;50.082;18.554;2023-07-16T05:13:01;8.7;;;4.4;;
23360;SDS011;11852;50.082;18.554;2023-07-16T05:14:06;6.8;;;4.4;;
23360;SDS011;11852;50.082;18.554;2023-07-16T05:15:11;9.0;;;4.6;;
23360;SDS011;11852;50.082;18.554;2023-07-16T05:16:16;7.4;;;4.7;;
23360;SDS011;11852;50.082;18.554;2023-07-16T05:17:21;9.4;;;4.4;;
23360;SDS011;11852;50.082;18.554;2023-07-16T05:18:25;7.4;;;4.2;;
23360;SDS011;11852;50.082;18.554;2023-07-16T05:19:31;8.1;;;4.1;;
23360;SDS011;11852;50.082;18.554;2023-07-16T05:20:36;6.8;;;4.2;;
23360;SDS011;11852;50.082;18.554;2023-07-16T05:21:41;6.6;;;3.9;;
23360;SDS011;11852;50.082;18.554;2023-07-16T05:22:46;7.1;;;3.7;;
23360;SDS011;11852;50.082;18.554;2023-07-16T05:23:51;7.1;;;3.9;;
23360;SDS011;11852;50.082;18.554;2023-07-16T05:24:56;7.4;;;3.9;;
23360;SDS011;11852;50.082;18.554;2023-07-16T05:26:02;8.4;;;4.6;;
23360;SDS011;11852;50.082;18.554;2023-07-16T05:27:07;8.7;;;4.2;;
23360;SDS011;11852;50.082;18.554;2023-07-16T05:28:12;8.7;;;4.2;;
23360;SDS011;11852;50.082;18.554;2023-07-16T05:29:17;7.5;;;4.8;;
23360;SDS011;11852;50.082;18.554;2023-07-16T05:30:22;7.5;;;4.6;;
23360;SDS011;11852;50.082;18.554;2023-07-16T05:31:27;7.5;;;4.6;;
23360;SDS011;11852;50.082;18.554;2023-07-16T05:32:31;7.0;;;4.5;;
23360;SDS011;11852;50.082;18.554;2023-07-16T05:33:36;6.6;;;4.6;;
23360;SDS011;11852;50.082;18.554;2023-07-16T05:34:41;7.6;;;4.6;;
23360;SDS011;11852;50.082;18.554;2023-07-16T05:35:48;9.4;;;5.2;;
23360;SDS011;11852;50.082;18.554;2023-07-16T05:36:53;8.0;;;5.4;;
23360;SDS011;11852;50.082;18.554;2023-07-16T05:37:59;8.0;;;4.8;;
23360;SDS011;11852;50.082;18.554;2023-07-16T05:39:04;9.7;;;5.5;;
23360;SDS011;11852;50.082;18.554;2023-07-16T05:40:10;8.5;;;5.1;;
23360;SDS011;11852;50.082;18.554;2023-07-16T05:41:19;9.0;;;5.5;;
23360;SDS011;11852;50.082;18.554;2023-07-16T05:42:24;8.1;;;5.1;;
23360;SDS011;11852;50.082;18.554;2023-07-16T05:43:30;8.7;;;5.4;;
23360;SDS011;11852;50.082;18.554;2023-07-16T05:44:35;6.9;;;5.1;;
23360;SDS011;11852;50.082;18.554;2023-07-16T05:45:40;10.9;;;5.8;;
23360;SDS011;11852;50.082;18.554;2023-07-16T05:46:45;7.3;;;5.5;;
23360;SDS011;11852;50.082;18.554;2023-07-16T05:47:51;8.9;;;5.3;;
23360;SDS011;11852;50.082;18.554;2023-07-16T05:49:00;8.4;;;5.7;;
23360;SDS011;11852;50.082;18.554;2023-07-16T05:50:05;7.9;;;4.7;;
23360;SDS011;11852;50.082;18.554;2023-07-16T05:51:11;10.2;;;5.6;;
23360;SDS011;11852;50.082;18.554;2023-07-16T05:52:18;8.9;;;5.1;;
23360;SDS011;11852;50.082;18.554;2023-07-16T05:53:24;10.0;;;5.5;;
23360;SDS011;11852;50.082;18.554;2023-07-16T05:54:29;7.2;;;5.5;;
23360;SDS011;11852;50.082;18.554;2023-07-16T05:55:34;7.7;;;5.6;;
23360;SDS011;11852;50.082;18.554;2023-07-16T05:56:39;9.0;;;5.4;;
23360;SDS011;11852;50.082;18.554;2023-07-16T05:57:46;7.4;;;5.4;;
23360;SDS011;11852;50.082;18.554;2023-07-16T05:58:52;10.0;;;5.8;;
23360;SDS011;11852;50.082;18.554;2023-07-16T05:59:57;10.6;;;5.6;;
23360;SDS011;11852;50.082;18.554;2023-07-16T06:01:01;9.7;;;6.2;;
23360;SDS011;11852;50.082;18.554;2023-07-16T06:02:06;8.5;;;6.2;;
23360;SDS011;11852;50.082;18.554;2023-07-16T06:03:11;11.3;;;5.7;;
23360;SDS011;11852;50.082;18.554;2023-07-16T06:04:19;8.8;;;6.0;;
23360;SDS011;11852;50.082;18.554;2023-07-16T06:05:26;7.2;;;5.4;;
23360;SDS011;11852;50.082;18.554;2023-07-16T06:06:31;8.6;;;5.9;;
23360;SDS011;11852;50.082;18.554;2023-07-16T06:07:39;10.5;;;6.2;;
23360;SDS011;11852;50.082;18.554;2023-07-16T06:08:45;8.5;;;5.9;;
23360;SDS011;11852;50.082;18.554;2023-07-16T06:09:50;8.2;;;5.4;;
23360;SDS011;11852;50.082;18.554;2023-07-16T06:10:55;8.4;;;5.6;;
23360;SDS011;11852;50.082;18.554;2023-07-16T06:12:02;7.8;;;5.6;;
23360;SDS011;11852;50.082;18.554;2023-07-16T06:13:05;7.1;;;5.5;;
23360;SDS011;11852;50.082;18.554;2023-07-16T06:14:10;10.5;;;5.7;;
23360;SDS011;11852;50.082;18.554;2023-07-16T06:15:16;10.2;;;5.6;;
23360;SDS011;11852;50.082;18.554;2023-07-16T06:16:21;8.6;;;6.1;;
23360;SDS011;11852;50.082;18.554;2023-07-16T06:17:26;8.4;;;5.8;;
23360;SDS011;11852;50.082;18.554;2023-07-16T06:18:30;8.2;;;6.0;;
23360;SDS011;11852;50.082;18.554;2023-07-16T06:19:35;8.3;;;6.0;;
23360;SDS011;11852;50.082;18.554;2023-07-16T06:20:43;10.0;;;5.9;;
23360;SDS011;11852;50.082;18.554;2023-07-16T06:21:48;10.0;;;6.4;;
23360;SDS011;11852;50.082;18.554;2023-07-16T06:22:57;9.8;;;6.3;;
23360;SDS011;11852;50.082;18.554;2023-07-16T06:24:02;8.6;;;6.3;;
23360;SDS011;11852;50.082;18.554;2023-07-16T06:25:10;9.2;;;6.4;;
23360;SDS011;11852;50.082;18.554;2023-07-16T06:26:16;9.1;;;6.2;;
23360;SDS011;11852;50.082;18.554;2023-07-16T06:27:22;9.3;;;6.7;;
23360;SDS011;11852;50.082;18.554;2023-07-16T06:28:26;8.8;;;7.2;;
23360;SDS011;11852;50.082;18.554;2023-07-16T06:29:31;10.2;;;7.3;;
23360;SDS011;11852;50.082;18.554;2023-07-16T06:30:37;12.1;;;8.0;;
23360;SDS011;11852;50.082;18.554;2023-07-16T06:31:53;9.4;;;7.5;;
23360;SDS011;11852;50.082;18.554;2023-07-16T06:32:52;11.5;;;7.4;;
23360;SDS011;11852;50.082;18.554;2023-07-16T06:33:57;11.5;;;7.6;;
23360;SDS011;11852;50.082;18.554;2023-07-16T06:35:02;9.4;;;7.2;;
23360;SDS011;11852;50.082;18.554;2023-07-16T06:36:08;9.8;;;6.7;;
23360;SDS011;11852;50.082;18.554;2023-07-16T06:37:15;10.2;;;6.8;;
23360;SDS011;11852;50.082;18.554;2023-07-16T06:38:23;9.4;;;6.9;;
23360;SDS011;11852;50.082;18.554;2023-07-16T06:39:27;10.3;;;6.8;;
23360;SDS011;11852;50.082;18.554;2023-07-16T06:40:32;10.4;;;7.3;;
23360;SDS011;11852;50.082;18.554;2023-07-16T06:41:38;11.1;;;7.0;;
23360;SDS011;11852;50.082;18.554;2023-07-16T06:42:42;10.7;;;7.1;;
23360;SDS011;11852;50.082;18.554;2023-07-16T06:43:48;10.7;;;7.0;;
23360;SDS011;11852;50.082;18.554;2023-07-16T06:44:56;10.5;;;7.0;;
23360;SDS011;11852;50.082;18.554;2023-07-16T06:46:03;10.5;;;7.0;;
23360;SDS011;11852;50.082;18.554;2023-07-16T06:47:08;11.3;;;8.2;;